createdAt,value
2023-08-06T00:01:59.785Z,14.60
2023-08-06T00:04:26.859Z,14.60
2023-08-06T00:06:53.903Z,14.50
2023-08-06T00:09:20.951Z,14.50
2023-08-06T00:11:48.064Z,14.50
2023-08-06T00:14:16.619Z,14.50
2023-08-06T00:16:46.789Z,14.50
2023-08-06T00:19:13.841Z,14.50
2023-08-06T00:21:40.882Z,14.50
2023-08-06T00:24:07.839Z,14.50
2023-08-06T00:26:34.829Z,14.50
2023-08-06T00:29:01.904Z,14.40
2023-08-06T00:31:30.245Z,14.50
2023-08-06T00:33:57.186Z,14.50
2023-08-06T00:36:27.161Z,14.50
2023-08-06T00:38:54.160Z,14.40
2023-08-06T00:41:21.156Z,14.40
2023-08-06T00:43:48.165Z,14.40
2023-08-06T00:46:15.523Z,14.50
2023-08-06T00:48:43.098Z,14.40
2023-08-06T00:51:12.290Z,14.40
2023-08-06T00:53:40.552Z,14.40
2023-08-06T00:56:08.849Z,14.40
2023-08-06T00:58:37.491Z,14.40
2023-08-06T01:01:04.590Z,14.40
2023-08-06T01:03:31.793Z,14.40
2023-08-06T01:05:58.978Z,14.40
2023-08-06T01:08:59.575Z,14.40
2023-08-06T01:12:07.641Z,14.40
2023-08-06T01:14:55.007Z,14.40
2023-08-06T01:17:22.599Z,14.40
2023-08-06T01:19:49.736Z,14.40
2023-08-06T01:22:16.794Z,14.40
2023-08-06T01:24:50.747Z,14.40
2023-08-06T01:27:36.505Z,14.40
2023-08-06T01:30:13.086Z,14.40
2023-08-06T01:32:47.409Z,14.40
2023-08-06T01:35:17.675Z,14.40
2023-08-06T01:37:45.424Z,14.40
2023-08-06T01:40:13.763Z,14.40
2023-08-06T01:42:41.006Z,14.40
2023-08-06T01:45:09.440Z,14.40
2023-08-06T01:47:36.942Z,14.40
2023-08-06T01:50:04.528Z,14.40
2023-08-06T01:52:31.523Z,14.40
2023-08-06T01:54:58.594Z,14.40
2023-08-06T01:57:25.650Z,14.40
2023-08-06T01:59:52.602Z,14.40
2023-08-06T02:02:19.538Z,14.40
2023-08-06T02:04:46.496Z,14.30
2023-08-06T02:07:13.451Z,14.30
2023-08-06T02:09:41.192Z,14.40
2023-08-06T02:12:09.966Z,14.30
2023-08-06T02:14:36.954Z,14.30
2023-08-06T02:17:03.959Z,14.30
2023-08-06T02:19:31.025Z,14.30
2023-08-06T02:21:58.027Z,14.30
2023-08-06T02:24:24.905Z,14.30
2023-08-06T02:26:52.735Z,14.30
2023-08-06T02:29:19.947Z,14.30
2023-08-06T02:31:46.911Z,14.30
2023-08-06T02:34:13.986Z,14.30
2023-08-06T02:36:40.991Z,14.30
2023-08-06T02:39:08.050Z,14.30
2023-08-06T02:41:34.966Z,14.30
2023-08-06T02:44:01.910Z,14.30
2023-08-06T02:46:28.958Z,14.30
2023-08-06T02:48:55.893Z,14.30
2023-08-06T02:51:22.812Z,14.30
2023-08-06T02:53:50.676Z,14.30
2023-08-06T02:56:17.645Z,14.30
2023-08-06T02:58:44.603Z,14.20
2023-08-06T03:01:11.598Z,14.20
2023-08-06T03:03:38.616Z,14.20
2023-08-06T03:06:05.679Z,14.20
2023-08-06T03:08:32.718Z,14.20
2023-08-06T03:10:59.638Z,14.20
2023-08-06T03:13:26.665Z,14.20
2023-08-06T03:15:59.040Z,14.20
2023-08-06T03:18:28.216Z,14.20
2023-08-06T03:20:55.793Z,14.10
2023-08-06T03:23:22.872Z,14.10
2023-08-06T03:25:49.777Z,14.10
2023-08-06T03:28:17.660Z,14.00
2023-08-06T03:30:44.646Z,14.00
2023-08-06T03:33:11.637Z,14.00
2023-08-06T03:35:38.587Z,14.00
2023-08-06T03:38:05.491Z,14.00
2023-08-06T03:40:32.540Z,14.00
2023-08-06T03:42:59.464Z,14.00
2023-08-06T03:45:26.424Z,14.00
2023-08-06T03:47:54.073Z,14.00
2023-08-06T03:50:21.017Z,14.00
2023-08-06T03:52:50.756Z,14.00
2023-08-06T03:55:17.715Z,14.00
2023-08-06T03:57:44.702Z,14.00
2023-08-06T04:00:12.129Z,14.00
2023-08-06T04:02:39.148Z,14.00
2023-08-06T04:05:06.485Z,14.00
2023-08-06T04:07:33.405Z,14.00
2023-08-06T22:37:55.838Z,15.00
2023-08-06T22:40:22.681Z,15.10
2023-08-06T22:42:49.571Z,15.00
2023-08-06T22:45:16.374Z,15.00
2023-08-06T22:47:43.873Z,15.00
2023-08-06T22:50:11.899Z,15.00
2023-08-06T22:52:40.094Z,15.00
2023-08-06T22:57:37.718Z,14.90
2023-08-06T23:00:05.673Z,14.90
2023-08-06T23:02:32.692Z,14.90
2023-08-06T23:04:59.699Z,14.90
2023-08-06T23:07:26.541Z,14.90
2023-08-06T23:09:53.442Z,14.90
2023-08-06T23:12:20.345Z,14.90
2023-08-06T23:14:47.186Z,14.90
2023-08-06T23:17:14.098Z,14.90
2023-08-06T23:19:41.018Z,14.90
2023-08-06T23:22:08.089Z,14.90
2023-08-06T23:24:34.944Z,14.90
2023-08-06T23:27:02.044Z,14.90
2023-08-06T23:29:28.951Z,14.90
2023-08-06T23:31:59.063Z,14.90
2023-08-06T23:34:26.070Z,14.90
2023-08-06T23:36:52.934Z,14.90
2023-08-06T23:39:19.880Z,14.90
2023-08-06T23:41:49.774Z,14.90
2023-08-06T23:44:16.623Z,14.90
2023-08-06T23:46:43.505Z,15.00
2023-08-06T23:49:10.429Z,15.00
2023-08-06T23:51:37.252Z,15.00
2023-08-06T23:54:04.104Z,15.00
2023-08-06T23:56:30.968Z,15.00
2023-08-06T23:58:57.802Z,15.00
